Time;durP1;ratioP1;P1;durP2;ratioP2;P2;SDS_P1;SDS_P2;PMS_P1;PMS_P2;Temp;Humidity;BMP_temperature;BMP_pressure;BME280_temperature;BME280_humidity;BME280_pressure;Samples;Min_cycle;Max_cycle;Signal;HPM_P1;HPM_P2
2022/12/02 00:00:18;;;;;;;12.23;7.20;;;;;;;;;;5098881;28;20204;-65
2022/12/02 00:02:47;;;;;;;12.27;7.20;;;;;;;;;;5098592;28;20208;-65
2022/12/02 00:05:25;;;;;;;11.87;7.60;;;;;;;;;;5098582;28;20221;-65
2022/12/02 00:07:53;;;;;;;12.47;7.30;;;;;;;;;;5097819;28;20201;-65
2022/12/02 00:10:25;;;;;;;9.50;6.03;;;;;;;;;;5098597;28;20274;-64
2022/12/02 00:12:53;;;;;;;11.13;7.00;;;;;;;;;;5097861;28;20198;-64
2022/12/02 00:15:33;;;;;;;11.63;6.90;;;;;;;;;;5098314;28;20830;-65
2022/12/02 00:18:02;;;;;;;12.07;6.73;;;;;;;;;;5098344;28;20193;-65
2022/12/02 00:20:31;;;;;;;12.03;7.13;;;;;;;;;;5098723;28;20683;-65
2022/12/02 00:22:59;;;;;;;13.30;7.10;;;;;;;;;;5094838;28;20293;-65
2022/12/02 00:25:27;;;;;;;13.90;6.80;;;;;;;;;;5098269;28;20221;-65
2022/12/02 00:27:55;;;;;;;13.07;7.80;;;;;;;;;;5098365;28;20563;-64
2022/12/02 00:30:23;;;;;;;14.80;7.30;;;;;;;;;;5112901;28;20235;-65
2022/12/02 00:32:51;;;;;;;8.60;6.03;;;;;;;;;;5118584;28;20685;-65
2022/12/02 00:35:19;;;;;;;12.70;7.10;;;;;;;;;;5118574;28;20739;-65
2022/12/02 00:37:48;;;;;;;12.80;6.97;;;;;;;;;;5118666;28;20548;-65
2022/12/02 00:40:16;;;;;;;10.67;6.53;;;;;;;;;;5097744;28;20208;-65
2022/12/02 00:42:44;;;;;;;10.10;6.30;;;;;;;;;;5098055;28;20211;-65
2022/12/02 00:47:58;;;;;;;14.20;7.37;;;;;;;;;;5098429;28;20205;-65
2022/12/02 00:50:26;;;;;;;13.33;7.27;;;;;;;;;;5098361;28;20226;-65
2022/12/02 00:52:55;;;;;;;13.13;7.67;;;;;;;;;;5098733;28;20543;-65
2022/12/02 00:55:23;;;;;;;11.23;7.10;;;;;;;;;;5089957;28;20588;-65
2022/12/02 00:57:51;;;;;;;11.57;7.30;;;;;;;;;;5097523;28;20676;-65
2022/12/02 01:00:20;;;;;;;13.23;7.27;;;;;;;;;;5097971;28;20205;-65
2022/12/02 01:02:48;;;;;;;14.70;7.13;;;;;;;;;;5097914;28;20667;-65
2022/12/02 01:05:16;;;;;;;12.70;7.23;;;;;;;;;;5097825;28;20686;-65
2022/12/02 01:07:44;;;;;;;11.13;6.87;;;;;;;;;;5097676;28;20700;-65
2022/12/02 01:10:13;;;;;;;12.87;7.90;;;;;;;;;;5097218;28;20222;-65
2022/12/02 01:12:41;;;;;;;11.57;7.10;;;;;;;;;;5097556;28;20302;-65
2022/12/02 01:15:10;;;;;;;12.20;7.53;;;;;;;;;;5097590;28;20700;-65
2022/12/02 01:17:38;;;;;;;12.87;7.27;;;;;;;;;;5097806;28;20680;-65
2022/12/02 01:20:06;;;;;;;11.40;6.77;;;;;;;;;;5098168;28;20209;-65
2022/12/02 01:22:35;;;;;;;14.77;8.13;;;;;;;;;;5098055;28;20213;-65
2022/12/02 01:25:03;;;;;;;14.43;7.33;;;;;;;;;;5100731;28;20233;-65
2022/12/02 01:27:32;;;;;;;14.70;7.90;;;;;;;;;;5100951;28;20221;-65
2022/12/02 01:30:00;;;;;;;16.23;8.27;;;;;;;;;;5102030;28;20232;-65
2022/12/02 01:32:28;;;;;;;10.97;7.30;;;;;;;;;;5101486;28;20209;-65
2022/12/02 01:34:56;;;;;;;13.53;7.57;;;;;;;;;;5101678;28;20569;-65
2022/12/02 01:37:24;;;;;;;15.30;7.87;;;;;;;;;;5101862;28;20289;-65
2022/12/02 01:39:52;;;;;;;14.43;7.77;;;;;;;;;;5101910;28;20201;-65
2022/12/02 01:42:20;;;;;;;14.63;8.13;;;;;;;;;;5100661;28;20544;-65
2022/12/02 01:44:49;;;;;;;13.40;7.80;;;;;;;;;;5101602;28;20587;-65
2022/12/02 01:47:18;;;;;;;13.30;7.60;;;;;;;;;;5090219;28;20213;-65
2022/12/02 01:49:46;;;;;;;14.00;8.00;;;;;;;;;;5101573;28;20243;-65
2022/12/02 01:52:14;;;;;;;13.13;8.20;;;;;;;;;;5101689;28;20201;-65
2022/12/02 01:54:42;;;;;;;19.83;9.27;;;;;;;;;;5101263;28;20225;-65
2022/12/02 01:57:11;;;;;;;15.50;8.03;;;;;;;;;;5100931;28;20216;-65
2022/12/02 01:59:39;;;;;;;16.57;9.33;;;;;;;;;;5095277;28;20455;-65
2022/12/02 02:02:22;;;;;;;16.37;7.67;;;;;;;;;;5100956;28;20793;-65
2022/12/02 02:04:52;;;;;;;15.10;8.30;;;;;;;;;;5101349;28;20463;-65
2022/12/02 02:07:20;;;;;;;16.73;8.43;;;;;;;;;;5101041;28;20475;-65
2022/12/02 02:09:48;;;;;;;14.37;7.57;;;;;;;;;;5101201;28;20443;-65
2022/12/02 02:12:16;;;;;;;13.87;7.63;;;;;;;;;;5101563;28;20446;-65
2022/12/02 02:14:44;;;;;;;16.87;8.67;;;;;;;;;;5099955;28;20486;-65
2022/12/02 02:17:12;;;;;;;13.53;7.70;;;;;;;;;;5099637;28;20463;-65
2022/12/02 02:19:40;;;;;;;12.73;7.43;;;;;;;;;;5087549;28;20443;-65
2022/12/02 02:22:12;;;;;;;13.77;7.57;;;;;;;;;;5100860;28;20206;-65
2022/12/02 02:24:42;;;;;;;15.10;8.10;;;;;;;;;;5100678;28;20601;-65
2022/12/02 02:27:10;;;;;;;15.23;7.67;;;;;;;;;;5100941;28;20205;-64
2022/12/02 02:29:38;;;;;;;19.67;9.80;;;;;;;;;;5100181;28;20212;-64
2022/12/02 02:32:06;;;;;;;13.27;8.27;;;;;;;;;;5100093;28;20221;-64
2022/12/02 02:34:34;;;;;;;13.57;7.93;;;;;;;;;;5099606;28;20228;-64
2022/12/02 02:37:02;;;;;;;15.17;8.83;;;;;;;;;;5102265;28;20212;-64
2022/12/02 02:39:30;;;;;;;12.90;7.77;;;;;;;;;;5121153;28;20208;-64
2022/12/02 02:42:00;;;;;;;13.77;8.57;;;;;;;;;;5107072;28;20657;-64
2022/12/02 02:44:29;;;;;;;20.27;8.77;;;;;;;;;;5099574;28;20217;-64
2022/12/02 02:46:57;;;;;;;17.67;9.63;;;;;;;;;;5095974;28;20201;-64
2022/12/02 02:49:25;;;;;;;15.70;8.97;;;;;;;;;;5100864;28;20236;-64
2022/12/02 02:51:54;;;;;;;16.27;9.30;;;;;;;;;;5101686;28;20256;-64
2022/12/02 02:54:22;;;;;;;13.67;8.00;;;;;;;;;;5096724;28;20232;-64
2022/12/02 02:56:50;;;;;;;15.53;8.67;;;;;;;;;;5099490;28;20607;-64
2022/12/02 02:59:20;;;;;;;13.83;8.67;;;;;;;;;;5100136;28;20198;-64
2022/12/02 03:01:51;;;;;;;13.67;8.13;;;;;;;;;;5098793;28;20204;-64
2022/12/02 03:04:20;;;;;;;16.10;8.53;;;;;;;;;;5101039;28;20626;-64
2022/12/02 03:06:49;;;;;;;16.27;8.80;;;;;;;;;;5101140;28;20705;-65
2022/12/02 03:09:19;;;;;;;12.80;7.90;;;;;;;;;;5101130;28;20212;-64
2022/12/02 03:11:49;;;;;;;17.43;9.33;;;;;;;;;;5120275;28;20263;-64
2022/12/02 03:14:18;;;;;;;14.80;7.63;;;;;;;;;;5100258;28;20221;-64
2022/12/02 03:16:48;;;;;;;15.07;7.90;;;;;;;;;;5098077;28;20198;-64
2022/12/02 03:19:17;;;;;;;15.60;7.97;;;;;;;;;;5116964;28;20747;-64
2022/12/02 03:21:45;;;;;;;15.53;8.50;;;;;;;;;;5120270;28;20215;-64
2022/12/02 03:24:13;;;;;;;18.07;8.53;;;;;;;;;;5106852;28;20251;-64
2022/12/02 03:26:42;;;;;;;14.67;8.67;;;;;;;;;;5099487;28;20207;-64
2022/12/02 03:29:10;;;;;;;16.83;9.07;;;;;;;;;;5098897;28;20467;-64
2022/12/02 03:31:38;;;;;;;18.70;9.30;;;;;;;;;;5099130;28;20479;-64
2022/12/02 03:34:08;;;;;;;15.77;7.93;;;;;;;;;;5099524;28;20464;-64
2022/12/02 03:36:36;;;;;;;13.07;7.97;;;;;;;;;;5098030;28;20525;-64
2022/12/02 03:39:05;;;;;;;14.53;7.37;;;;;;;;;;5099148;28;20444;-64
2022/12/02 03:41:33;;;;;;;15.73;9.23;;;;;;;;;;5099380;28;20450;-64
2022/12/02 03:44:01;;;;;;;17.03;8.43;;;;;;;;;;5085627;28;20598;-64
2022/12/02 03:46:30;;;;;;;15.90;7.83;;;;;;;;;;5098986;28;20205;-64
2022/12/02 03:48:58;;;;;;;14.53;8.83;;;;;;;;;;5098504;28;20205;-64
2022/12/02 03:51:28;;;;;;;14.43;8.60;;;;;;;;;;5098076;28;20618;-64
2022/12/02 03:53:56;;;;;;;15.37;8.97;;;;;;;;;;5099061;28;20587;-64
2022/12/02 03:56:24;;;;;;;13.90;8.37;;;;;;;;;;5099000;28;20571;-64
2022/12/02 03:58:53;;;;;;;14.53;8.20;;;;;;;;;;5099050;28;20205;-64
2022/12/02 04:01:21;;;;;;;14.43;8.67;;;;;;;;;;5098915;28;20202;-64
2022/12/02 04:03:50;;;;;;;12.43;7.73;;;;;;;;;;5098804;28;20229;-64
2022/12/02 04:06:17;;;;;;;16.53;8.97;;;;;;;;;;5097722;28;20241;-64
2022/12/02 04:08:47;;;;;;;16.43;8.53;;;;;;;;;;5098832;28;20205;-64
2022/12/02 04:11:15;;;;;;;15.93;8.43;;;;;;;;;;5098715;28;20227;-64
2022/12/02 04:13:43;;;;;;;15.33;8.37;;;;;;;;;;5098995;28;20248;-64
2022/12/02 04:16:11;;;;;;;16.40;8.37;;;;;;;;;;5098515;28;20205;-64
2022/12/02 04:18:39;;;;;;;13.10;8.70;;;;;;;;;;5089424;28;20213;-64
2022/12/02 04:21:07;;;;;;;15.70;9.10;;;;;;;;;;5098511;28;20231;-65
2022/12/02 04:23:35;;;;;;;17.33;8.63;;;;;;;;;;5097772;28;20221;-64
2022/12/02 04:26:04;;;;;;;16.67;8.20;;;;;;;;;;5098556;28;20198;-64
2022/12/02 04:28:32;;;;;;;14.10;8.50;;;;;;;;;;5098574;28;20205;-64
2022/12/02 04:31:00;;;;;;;17.30;8.93;;;;;;;;;;5098013;28;20228;-64
2022/12/02 04:33:28;;;;;;;13.60;8.73;;;;;;;;;;5098644;28;20256;-64
2022/12/02 04:35:56;;;;;;;14.03;7.97;;;;;;;;;;5098477;28;20684;-64
2022/12/02 04:38:24;;;;;;;16.33;8.20;;;;;;;;;;5097622;28;20212;-64
2022/12/02 04:40:52;;;;;;;16.73;9.07;;;;;;;;;;5098310;28;20212;-64
2022/12/02 04:43:21;;;;;;;18.30;9.50;;;;;;;;;;5098052;28;20703;-64
2022/12/02 04:45:49;;;;;;;13.40;7.93;;;;;;;;;;5098277;28;20210;-64
2022/12/02 04:48:17;;;;;;;17.30;9.13;;;;;;;;;;5098351;28;20217;-64
2022/12/02 04:50:45;;;;;;;21.77;9.03;;;;;;;;;;5098117;28;20215;-64
2022/12/02 04:53:13;;;;;;;13.93;8.47;;;;;;;;;;5096969;28;20240;-64
2022/12/02 04:55:45;;;;;;;14.40;8.53;;;;;;;;;;5098120;28;20443;-64
2022/12/02 04:58:13;;;;;;;17.07;9.23;;;;;;;;;;5097653;28;20528;-64
2022/12/02 05:00:43;;;;;;;19.20;9.03;;;;;;;;;;5097897;28;20452;-64
2022/12/02 05:03:11;;;;;;;15.37;8.83;;;;;;;;;;5098208;28;20197;-64
2022/12/02 05:05:39;;;;;;;14.17;8.23;;;;;;;;;;5097984;28;20202;-64
2022/12/02 05:08:07;;;;;;;17.83;9.03;;;;;;;;;;5098110;28;20205;-64
2022/12/02 05:10:35;;;;;;;14.97;8.87;;;;;;;;;;5090458;28;20567;-64
2022/12/02 05:13:03;;;;;;;16.87;9.30;;;;;;;;;;5097798;28;20233;-64
2022/12/02 05:15:32;;;;;;;14.03;8.13;;;;;;;;;;5102853;28;20500;-64
2022/12/02 05:18:01;;;;;;;15.10;8.60;;;;;;;;;;5098465;28;20201;-64
2022/12/02 05:20:29;;;;;;;16.27;8.63;;;;;;;;;;5098276;28;20459;-65
2022/12/02 05:22:57;;;;;;;14.83;8.70;;;;;;;;;;5097745;28;20809;-62
2022/12/02 05:25:25;;;;;;;14.23;8.40;;;;;;;;;;5094126;28;20479;-62
2022/12/02 05:27:54;;;;;;;14.40;7.77;;;;;;;;;;5105401;28;20207;-62
2022/12/02 05:30:22;;;;;;;15.20;8.77;;;;;;;;;;5099520;28;20454;-62
2022/12/02 05:32:51;;;;;;;18.30;9.57;;;;;;;;;;5097345;28;20486;-62
2022/12/02 05:35:20;;;;;;;13.17;8.63;;;;;;;;;;5098329;28;20479;-62
2022/12/02 05:37:49;;;;;;;17.53;9.57;;;;;;;;;;5096540;28;20225;-62
2022/12/02 05:40:17;;;;;;;21.57;11.77;;;;;;;;;;5097509;28;20463;-62
2022/12/02 05:42:45;;;;;;;16.00;8.53;;;;;;;;;;5095542;28;20856;-62
2022/12/02 05:45:15;;;;;;;18.83;10.27;;;;;;;;;;5096111;28;20532;-62
2022/12/02 05:47:44;;;;;;;15.57;9.00;;;;;;;;;;5099090;28;20216;-62
2022/12/02 05:50:13;;;;;;;17.60;9.30;;;;;;;;;;5094795;28;20197;-62
2022/12/02 05:52:43;;;;;;;15.83;8.47;;;;;;;;;;5103197;28;20322;-62
2022/12/02 05:55:13;;;;;;;14.60;9.20;;;;;;;;;;5097565;28;20257;-62
2022/12/02 05:57:41;;;;;;;15.83;8.90;;;;;;;;;;5097484;28;20681;-62
2022/12/02 06:00:14;;;;;;;16.27;8.70;;;;;;;;;;5097512;28;20206;-61
2022/12/02 06:02:43;;;;;;;16.73;9.23;;;;;;;;;;5096839;28;20202;-61
2022/12/02 06:05:19;;;;;;;16.10;8.60;;;;;;;;;;5097643;28;20257;-61
2022/12/02 06:07:50;;;;;;;15.20;9.20;;;;;;;;;;5094491;28;20589;-62
2022/12/02 06:10:28;;;;;;;17.60;9.27;;;;;;;;;;5095703;28;20310;-61
2022/12/02 06:12:57;;;;;;;12.30;7.70;;;;;;;;;;5101154;28;20232;-62
2022/12/02 06:15:26;;;;;;;15.47;8.60;;;;;;;;;;5100906;28;20232;-62
2022/12/02 06:17:54;;;;;;;15.87;9.23;;;;;;;;;;5105757;28;20205;-62
2022/12/02 06:20:26;;;;;;;16.63;8.17;;;;;;;;;;5121684;28;20208;-62
2022/12/02 06:22:56;;;;;;;15.40;8.53;;;;;;;;;;5093606;28;20462;-62
2022/12/02 06:25:26;;;;;;;18.00;9.50;;;;;;;;;;5095304;28;20480;-62
2022/12/02 06:27:56;;;;;;;16.53;9.20;;;;;;;;;;5100629;28;20922;-62
2022/12/02 06:30:26;;;;;;;17.57;9.07;;;;;;;;;;5093320;28;20449;-63
2022/12/02 06:32:55;;;;;;;17.97;9.30;;;;;;;;;;5121059;28;20574;-61
2022/12/02 06:35:25;;;;;;;18.83;9.43;;;;;;;;;;5120113;28;20224;-62
2022/12/02 06:37:54;;;;;;;22.20;10.50;;;;;;;;;;5112311;28;20547;-64
2022/12/02 06:40:25;;;;;;;15.73;9.67;;;;;;;;;;5084702;28;20455;-64
2022/12/02 06:42:56;;;;;;;20.50;9.37;;;;;;;;;;5100486;28;20444;-64
2022/12/02 06:45:27;;;;;;;17.07;9.43;;;;;;;;;;5099919;28;20455;-64
2022/12/02 06:48:11;;;;;;;16.67;8.47;;;;;;;;;;5100407;28;20454;-64
2022/12/02 06:50:40;;;;;;;16.80;9.10;;;;;;;;;;5087465;28;20444;-64
2022/12/02 06:53:19;;;;;;;15.73;9.53;;;;;;;;;;5099630;28;20487;-63
2022/12/02 06:55:49;;;;;;;20.23;9.03;;;;;;;;;;5100379;28;20216;-64
2022/12/02 06:58:25;;;;;;;19.10;9.27;;;;;;;;;;5100505;28;20443;-64
2022/12/02 07:00:54;;;;;;;19.87;9.90;;;;;;;;;;5099456;28;20454;-64
2022/12/02 07:03:27;;;;;;;15.83;8.73;;;;;;;;;;5100046;28;20443;-64
2022/12/02 07:05:56;;;;;;;17.27;9.47;;;;;;;;;;5099815;28;20244;-64
2022/12/02 07:08:25;;;;;;;17.43;9.23;;;;;;;;;;5088906;28;20664;-64
2022/12/02 07:10:54;;;;;;;19.20;10.20;;;;;;;;;;5093130;28;20593;-64
2022/12/02 07:13:23;;;;;;;21.97;10.77;;;;;;;;;;5111557;28;20217;-64
2022/12/02 07:15:51;;;;;;;16.30;9.27;;;;;;;;;;5089658;28;20650;-64
2022/12/02 07:18:21;;;;;;;16.90;9.97;;;;;;;;;;5102425;28;20571;-64
2022/12/02 07:20:49;;;;;;;18.63;9.30;;;;;;;;;;5104118;28;20208;-64
2022/12/02 07:23:19;;;;;;;18.37;9.17;;;;;;;;;;5114181;27;20443;-64
2022/12/02 07:25:47;;;;;;;17.13;9.30;;;;;;;;;;5099605;28;20435;-63
2022/12/02 07:28:22;;;;;;;16.37;9.50;;;;;;;;;;5093355;28;20462;-64
2022/12/02 07:30:54;;;;;;;16.37;9.27;;;;;;;;;;5099171;28;20522;-64
2022/12/02 07:33:22;;;;;;;17.87;9.47;;;;;;;;;;5099475;28;20270;-64
2022/12/02 07:35:50;;;;;;;17.53;9.60;;;;;;;;;;5099557;28;20212;-64
2022/12/02 07:38:18;;;;;;;21.60;9.67;;;;;;;;;;5099407;28;20216;-64
2022/12/02 07:41:06;;;;;;;17.00;10.13;;;;;;;;;;5099386;28;20239;-64
2022/12/02 07:43:36;;;;;;;15.30;9.23;;;;;;;;;;5098883;28;20218;-64
2022/12/02 07:46:04;;;;;;;18.37;9.27;;;;;;;;;;5096710;28;20205;-64
2022/12/02 07:48:32;;;;;;;20.97;10.47;;;;;;;;;;5099352;28;20206;-64
2022/12/02 07:51:00;;;;;;;20.07;10.87;;;;;;;;;;5099008;28;20209;-64
2022/12/02 07:53:28;;;;;;;20.47;9.70;;;;;;;;;;5098980;28;20714;-64
2022/12/02 07:55:57;;;;;;;17.70;9.47;;;;;;;;;;5099253;28;20213;-64
2022/12/02 07:58:25;;;;;;;18.57;11.13;;;;;;;;;;5098353;28;20205;-64
2022/12/02 08:01:14;;;;;;;22.03;11.13;;;;;;;;;;5098501;28;20202;-64
2022/12/02 08:03:47;;;;;;;18.13;9.60;;;;;;;;;;5093185;28;20225;-64
2022/12/02 08:06:15;;;;;;;18.80;10.33;;;;;;;;;;5094914;28;20581;-64
2022/12/02 08:08:43;;;;;;;18.63;9.73;;;;;;;;;;5098815;28;20272;-64
2022/12/02 08:11:11;;;;;;;21.33;10.27;;;;;;;;;;5098599;28;20213;-64
2022/12/02 08:13:39;;;;;;;20.27;10.03;;;;;;;;;;5098544;28;20255;-64
2022/12/02 08:16:10;;;;;;;20.00;10.63;;;;;;;;;;5098314;28;20568;-64
2022/12/02 08:18:39;;;;;;;21.93;10.50;;;;;;;;;;5097951;28;20567;-64
2022/12/02 08:21:07;;;;;;;20.20;10.63;;;;;;;;;;5098340;28;20205;-65
2022/12/02 08:23:36;;;;;;;19.17;9.57;;;;;;;;;;5098732;28;20300;-64
2022/12/02 08:26:04;;;;;;;18.00;10.50;;;;;;;;;;5098487;28;20201;-64
2022/12/02 08:28:32;;;;;;;19.37;11.17;;;;;;;;;;5098938;28;20209;-64
2022/12/02 08:31:00;;;;;;;21.53;9.97;;;;;;;;;;5098138;28;20202;-64
2022/12/02 08:33:28;;;;;;;22.50;11.60;;;;;;;;;;5096876;28;20630;-64
2022/12/02 08:35:58;;;;;;;18.30;10.20;;;;;;;;;;5098607;28;20206;-64
2022/12/02 08:38:26;;;;;;;21.17;10.60;;;;;;;;;;5098311;28;20600;-64
2022/12/02 08:40:54;;;;;;;20.47;10.03;;;;;;;;;;5098333;28;20205;-64
2022/12/02 08:43:22;;;;;;;19.73;10.13;;;;;;;;;;5098346;28;20209;-64
2022/12/02 08:45:50;;;;;;;17.60;10.30;;;;;;;;;;5098205;28;20209;-64
2022/12/02 08:48:18;;;;;;;18.13;10.13;;;;;;;;;;5098391;28;20202;-64
2022/12/02 08:50:46;;;;;;;24.70;10.10;;;;;;;;;;5087013;28;20209;-64
2022/12/02 08:53:15;;;;;;;20.13;10.47;;;;;;;;;;5097906;28;20205;-64
2022/12/02 08:55:43;;;;;;;18.13;11.20;;;;;;;;;;5096661;28;20201;-64
2022/12/02 08:58:12;;;;;;;21.03;10.30;;;;;;;;;;5093692;28;20201;-64
2022/12/02 09:00:40;;;;;;;18.33;10.27;;;;;;;;;;5097635;28;20212;-64
2022/12/02 09:03:08;;;;;;;18.87;10.57;;;;;;;;;;5095858;28;20210;-64
2022/12/02 09:05:36;;;;;;;20.60;11.23;;;;;;;;;;5094803;28;20208;-64
2022/12/02 09:08:05;;;;;;;16.97;10.30;;;;;;;;;;5097969;28;20205;-64
2022/12/02 09:10:34;;;;;;;19.87;10.20;;;;;;;;;;5098141;28;20215;-64
2022/12/02 09:13:02;;;;;;;20.13;9.90;;;;;;;;;;5097926;28;20227;-64
2022/12/02 09:15:30;;;;;;;20.37;10.17;;;;;;;;;;5097985;28;20267;-64
2022/12/02 09:17:59;;;;;;;16.93;9.53;;;;;;;;;;5097940;28;20263;-64
2022/12/02 09:20:27;;;;;;;18.30;9.97;;;;;;;;;;5098233;28;20211;-64
2022/12/02 09:22:55;;;;;;;23.33;10.60;;;;;;;;;;5083749;28;20205;-64
2022/12/02 09:25:23;;;;;;;20.40;11.23;;;;;;;;;;5097478;28;20657;-64
2022/12/02 09:27:52;;;;;;;18.23;11.53;;;;;;;;;;5097795;28;20567;-64
2022/12/02 09:30:20;;;;;;;20.53;10.47;;;;;;;;;;5097381;28;20206;-64
2022/12/02 09:32:48;;;;;;;22.37;10.47;;;;;;;;;;5097916;28;20201;-64
2022/12/02 09:35:16;;;;;;;19.97;11.13;;;;;;;;;;5097675;28;20229;-64
2022/12/02 09:37:44;;;;;;;19.33;10.70;;;;;;;;;;5096802;28;20202;-64
2022/12/02 09:40:13;;;;;;;19.30;10.10;;;;;;;;;;5097714;28;20205;-64
2022/12/02 09:42:41;;;;;;;18.50;10.07;;;;;;;;;;5097348;28;20805;-64
2022/12/02 09:45:12;;;;;;;20.63;10.63;;;;;;;;;;5098403;28;20459;-64
2022/12/02 09:47:40;;;;;;;16.13;9.67;;;;;;;;;;5101807;28;20212;-64
2022/12/02 09:50:10;;;;;;;16.77;9.43;;;;;;;;;;5101456;28;20209;-64
2022/12/02 09:52:38;;;;;;;20.33;10.93;;;;;;;;;;5100340;28;20217;-64
2022/12/02 09:55:08;;;;;;;19.73;10.27;;;;;;;;;;5101360;28;20225;-64
2022/12/02 09:57:36;;;;;;;19.00;11.13;;;;;;;;;;5101499;28;20205;-64
2022/12/02 10:00:10;;;;;;;19.87;10.93;;;;;;;;;;5101221;28;20209;-64
2022/12/02 10:02:40;;;;;;;20.03;10.67;;;;;;;;;;5101526;28;20205;-64
2022/12/02 10:05:13;;;;;;;20.50;10.47;;;;;;;;;;5101013;28;20279;-65
2022/12/02 10:07:41;;;;;;;21.60;10.30;;;;;;;;;;5101032;28;20255;-64
2022/12/02 10:10:10;;;;;;;18.03;10.17;;;;;;;;;;5100323;28;20276;-64
2022/12/02 10:12:38;;;;;;;17.50;10.43;;;;;;;;;;5096283;28;20211;-64
2022/12/02 10:15:07;;;;;;;19.63;10.33;;;;;;;;;;5100717;28;20239;-64
2022/12/02 10:17:35;;;;;;;18.67;9.93;;;;;;;;;;5101188;28;20280;-64
2022/12/02 10:20:05;;;;;;;25.37;12.43;;;;;;;;;;5101049;28;20213;-64
2022/12/02 10:22:33;;;;;;;20.43;10.87;;;;;;;;;;5101051;28;20205;-64
2022/12/02 10:25:01;;;;;;;18.57;10.77;;;;;;;;;;5099311;28;20608;-65
2022/12/02 10:27:30;;;;;;;20.87;11.03;;;;;;;;;;5100177;28;20202;-64
2022/12/02 10:30:13;;;;;;;20.70;10.30;;;;;;;;;;5098151;28;20539;-65
2022/12/02 10:32:41;;;;;;;17.27;9.83;;;;;;;;;;5087163;28;20664;-64
2022/12/02 10:35:10;;;;;;;23.67;11.13;;;;;;;;;;5100426;28;20229;-64
2022/12/02 10:37:38;;;;;;;20.13;11.97;;;;;;;;;;5100871;28;20210;-64
2022/12/02 10:40:08;;;;;;;19.30;11.63;;;;;;;;;;5100813;28;20217;-64
2022/12/02 10:42:36;;;;;;;16.93;10.57;;;;;;;;;;5099448;28;20212;-64
2022/12/02 10:45:15;;;;;;;22.53;11.73;;;;;;;;;;5100033;28;20218;-64
2022/12/02 10:47:43;;;;;;;19.40;10.50;;;;;;;;;;5100478;28;20211;-64
2022/12/02 10:50:17;;;;;;;18.90;10.40;;;;;;;;;;5100413;28;20201;-64
2022/12/02 10:52:47;;;;;;;20.17;10.77;;;;;;;;;;5098181;28;20201;-64
2022/12/02 10:55:16;;;;;;;47.27;23.27;;;;;;;;;;5097813;28;20231;-64
2022/12/02 10:57:44;;;;;;;19.83;11.03;;;;;;;;;;5093118;28;20212;-64
2022/12/02 11:00:16;;;;;;;20.33;11.00;;;;;;;;;;5086479;28;20256;-64
2022/12/02 11:02:45;;;;;;;17.13;9.57;;;;;;;;;;5096269;28;20678;-64
2022/12/02 11:05:19;;;;;;;19.73;10.57;;;;;;;;;;5100216;28;20229;-64
2022/12/02 11:07:51;;;;;;;21.17;11.60;;;;;;;;;;5099480;28;20237;-64
2022/12/02 11:10:20;;;;;;;24.90;10.63;;;;;;;;;;5100347;28;20632;-64
2022/12/02 11:12:59;;;;;;;20.73;10.33;;;;;;;;;;5100045;28;20288;-65
2022/12/02 11:15:39;;;;;;;17.77;10.30;;;;;;;;;;5098362;28;20221;-64
2022/12/02 11:18:08;;;;;;;21.50;11.97;;;;;;;;;;5096983;28;20205;-65
2022/12/02 11:20:38;;;;;;;18.50;11.03;;;;;;;;;;5094340;28;20212;-64
2022/12/02 11:23:17;;;;;;;22.00;10.43;;;;;;;;;;5099653;28;20205;-64
2022/12/02 11:25:52;;;;;;;16.93;9.83;;;;;;;;;;5099539;28;20208;-64
2022/12/02 11:28:44;;;;;;;19.80;9.47;;;;;;;;;;5099889;28;20208;-64
2022/12/02 11:31:22;;;;;;;19.80;10.63;;;;;;;;;;5099406;28;20620;-64
2022/12/02 11:34:05;;;;;;;20.73;11.27;;;;;;;;;;5086397;28;20283;-64
2022/12/02 11:36:36;;;;;;;16.30;9.50;;;;;;;;;;5097447;28;20229;-64
2022/12/02 11:39:07;;;;;;;19.87;10.77;;;;;;;;;;5099492;28;20198;-64
2022/12/02 11:41:54;;;;;;;21.00;11.10;;;;;;;;;;5099655;28;20237;-63
2022/12/02 11:44:23;;;;;;;20.67;11.67;;;;;;;;;;5099320;28;20232;-63
2022/12/02 11:46:52;;;;;;;22.80;10.93;;;;;;;;;;5099028;28;20579;-61
2022/12/02 11:49:22;;;;;;;21.70;10.73;;;;;;;;;;5091129;28;20285;-62
2022/12/02 11:51:53;;;;;;;17.27;9.97;;;;;;;;;;5099358;28;20209;-63
2022/12/02 11:54:23;;;;;;;21.63;11.37;;;;;;;;;;5099028;28;20603;-63
2022/12/02 11:56:53;;;;;;;19.03;11.07;;;;;;;;;;5099066;28;20225;-63
2022/12/02 11:59:25;;;;;;;22.17;12.00;;;;;;;;;;5099257;28;20209;-62
2022/12/02 12:02:06;;;;;;;20.57;10.77;;;;;;;;;;5098727;28;20206;-63
2022/12/02 12:04:34;;;;;;;21.90;11.60;;;;;;;;;;5088459;28;20685;-63
2022/12/02 12:07:04;;;;;;;25.77;12.10;;;;;;;;;;5105493;28;20252;-63
2022/12/02 12:09:32;;;;;;;33.50;12.47;;;;;;;;;;5094535;28;20205;-63
2022/12/02 12:12:14;;;;;;;24.70;11.17;;;;;;;;;;5099015;28;20206;-63
2022/12/02 12:14:59;;;;;;;24.07;11.50;;;;;;;;;;5098233;28;20743;-63
2022/12/02 12:17:43;;;;;;;20.73;10.80;;;;;;;;;;5098577;28;20564;-62
2022/12/02 12:20:29;;;;;;;19.50;10.60;;;;;;;;;;5092732;28;20577;-62
2022/12/02 12:23:12;;;;;;;18.93;11.43;;;;;;;;;;5097659;28;20709;-63
2022/12/02 12:25:43;;;;;;;20.07;10.57;;;;;;;;;;5097651;28;20206;-64
2022/12/02 12:28:25;;;;;;;22.57;12.23;;;;;;;;;;5098484;28;20208;-63
2022/12/02 12:30:54;;;;;;;20.37;10.50;;;;;;;;;;5098141;28;20566;-63
2022/12/02 12:33:22;;;;;;;18.60;10.50;;;;;;;;;;5098317;28;20197;-62
2022/12/02 12:35:53;;;;;;;19.03;11.67;;;;;;;;;;5097176;28;20583;-62
2022/12/02 12:38:21;;;;;;;19.87;11.20;;;;;;;;;;5086840;28;20202;-62
2022/12/02 12:40:58;;;;;;;22.07;12.23;;;;;;;;;;5096360;28;20721;-62
2022/12/02 12:43:26;;;;;;;18.73;11.50;;;;;;;;;;5093456;28;20307;-62
2022/12/02 12:45:54;;;;;;;22.20;11.20;;;;;;;;;;5098751;28;20204;-62
2022/12/02 12:48:22;;;;;;;20.03;11.23;;;;;;;;;;5097794;28;20379;-63
2022/12/02 12:50:50;;;;;;;22.27;11.23;;;;;;;;;;5091882;28;20561;-63
2022/12/02 12:53:18;;;;;;;19.73;10.50;;;;;;;;;;5098023;28;20696;-63
2022/12/02 12:55:46;;;;;;;21.20;11.27;;;;;;;;;;5098067;28;20230;-63
2022/12/02 12:58:15;;;;;;;22.27;10.73;;;;;;;;;;5107647;28;20205;-63
2022/12/02 13:00:43;;;;;;;19.37;10.87;;;;;;;;;;5118264;28;20209;-63
2022/12/02 13:03:11;;;;;;;18.73;10.53;;;;;;;;;;5118345;28;20315;-63
2022/12/02 13:05:39;;;;;;;22.10;10.80;;;;;;;;;;5118036;28;20254;-63
2022/12/02 13:08:08;;;;;;;19.47;10.73;;;;;;;;;;5099261;28;20244;-62
2022/12/02 13:10:36;;;;;;;19.70;10.03;;;;;;;;;;5098122;28;20210;-62
2022/12/02 13:13:04;;;;;;;20.07;11.00;;;;;;;;;;5097851;28;20211;-63
2022/12/02 13:15:36;;;;;;;20.70;11.60;;;;;;;;;;5093035;28;20229;-62
2022/12/02 13:18:05;;;;;;;26.47;11.10;;;;;;;;;;5098027;28;20211;-63
2022/12/02 13:20:33;;;;;;;17.43;10.27;;;;;;;;;;5102675;28;20200;-63
2022/12/02 13:23:01;;;;;;;19.37;10.77;;;;;;;;;;5103688;28;20292;-63
2022/12/02 13:25:29;;;;;;;21.97;10.47;;;;;;;;;;5104548;28;20229;-63
2022/12/02 13:27:57;;;;;;;19.37;11.10;;;;;;;;;;5102762;28;20204;-62
2022/12/02 13:30:25;;;;;;;21.90;10.90;;;;;;;;;;5089737;28;20212;-63
2022/12/02 13:32:54;;;;;;;22.33;11.60;;;;;;;;;;5124729;27;20232;-63
2022/12/02 13:35:22;;;;;;;20.50;11.67;;;;;;;;;;5124805;27;20219;-63
2022/12/02 13:37:50;;;;;;;18.67;11.23;;;;;;;;;;5124815;27;20238;-63
2022/12/02 13:40:19;;;;;;;20.30;10.77;;;;;;;;;;5124530;27;20755;-63
2022/12/02 13:42:47;;;;;;;21.17;11.30;;;;;;;;;;5118739;27;20243;-62
2022/12/02 13:45:15;;;;;;;17.77;10.63;;;;;;;;;;5103995;28;20265;-62
2022/12/02 13:47:43;;;;;;;18.90;10.30;;;;;;;;;;5103451;28;20193;-63
2022/12/02 13:50:12;;;;;;;20.50;11.20;;;;;;;;;;5104000;28;20208;-62
2022/12/02 13:52:40;;;;;;;24.83;12.13;;;;;;;;;;5104183;28;20215;-62
2022/12/02 13:55:08;;;;;;;20.47;11.40;;;;;;;;;;5103973;28;20772;-62
2022/12/02 13:57:36;;;;;;;24.07;11.47;;;;;;;;;;5103835;28;20657;-62
2022/12/02 14:00:05;;;;;;;20.40;12.23;;;;;;;;;;5102735;28;20269;-62
2022/12/02 14:02:33;;;;;;;29.60;12.43;;;;;;;;;;5104034;28;20209;-62
2022/12/02 14:05:01;;;;;;;24.37;12.53;;;;;;;;;;5104153;28;20225;-62
2022/12/02 14:07:36;;;;;;;27.30;13.83;;;;;;;;;;5103723;28;20638;-62
2022/12/02 14:10:05;;;;;;;28.17;14.17;;;;;;;;;;5104308;28;20202;-62
2022/12/02 14:12:33;;;;;;;26.47;12.07;;;;;;;;;;5102540;28;20201;-62
2022/12/02 14:15:01;;;;;;;21.07;10.83;;;;;;;;;;5093610;28;20218;-62
2022/12/02 14:17:29;;;;;;;19.93;12.03;;;;;;;;;;5096874;28;20564;-62
2022/12/02 14:19:57;;;;;;;23.60;11.97;;;;;;;;;;5103793;28;20719;-62
2022/12/02 14:22:25;;;;;;;19.87;11.87;;;;;;;;;;5104580;28;20220;-62
2022/12/02 14:24:55;;;;;;;21.30;12.10;;;;;;;;;;5103552;28;20659;-62
2022/12/02 14:27:23;;;;;;;25.40;12.70;;;;;;;;;;5103815;28;20311;-62
2022/12/02 14:29:51;;;;;;;21.83;11.67;;;;;;;;;;5103761;28;20209;-63
2022/12/02 14:32:19;;;;;;;22.33;12.60;;;;;;;;;;5104167;28;20205;-62
2022/12/02 14:34:46;;;;;;;21.37;11.93;;;;;;;;;;5106207;28;20232;-62
2022/12/02 14:37:15;;;;;;;20.90;11.97;;;;;;;;;;5099486;28;20693;-62
2022/12/02 14:39:43;;;;;;;21.37;12.50;;;;;;;;;;5092445;28;20233;-62